sensor_id;sensor_type;location;lat;lon;timestamp;P1;durP1;ratioP1;P2;durP2;ratioP2
19291;SDS011;9779;51.756;7.450;2023-11-22T00:00:08;5.70;;;5.30;;
19291;SDS011;9779;51.756;7.450;2023-11-22T00:02:34;5.50;;;5.00;;
19291;SDS011;9779;51.756;7.450;2023-11-22T00:05:00;5.77;;;5.47;;
19291;SDS011;9779;51.756;7.450;2023-11-22T00:07:26;5.70;;;5.30;;
19291;SDS011;9779;51.756;7.450;2023-11-22T00:09:57;5.70;;;5.30;;
19291;SDS011;9779;51.756;7.450;2023-11-22T00:12:23;5.70;;;5.30;;
19291;SDS011;9779;51.756;7.450;2023-11-22T00:14:49;6.83;;;6.43;;
19291;SDS011;9779;51.756;7.450;2023-11-22T00:17:16;6.40;;;5.90;;
19291;SDS011;9779;51.756;7.450;2023-11-22T00:19:44;6.87;;;6.37;;
19291;SDS011;9779;51.756;7.450;2023-11-22T00:22:11;7.37;;;6.00;;
19291;SDS011;9779;51.756;7.450;2023-11-22T00:24:39;6.50;;;6.10;;
19291;SDS011;9779;51.756;7.450;2023-11-22T00:27:05;6.77;;;6.00;;
19291;SDS011;9779;51.756;7.450;2023-11-22T00:29:31;7.33;;;6.73;;
19291;SDS011;9779;51.756;7.450;2023-11-22T00:31:57;7.03;;;6.43;;
19291;SDS011;9779;51.756;7.450;2023-11-22T00:34:22;6.97;;;6.43;;
19291;SDS011;9779;51.756;7.450;2023-11-22T00:36:48;9.23;;;6.83;;
19291;SDS011;9779;51.756;7.450;2023-11-22T00:39:14;7.20;;;6.60;;
19291;SDS011;9779;51.756;7.450;2023-11-22T00:41:40;7.03;;;6.53;;
19291;SDS011;9779;51.756;7.450;2023-11-22T00:44:06;6.97;;;6.43;;
19291;SDS011;9779;51.756;7.450;2023-11-22T00:46:32;7.60;;;7.10;;
19291;SDS011;9779;51.756;7.450;2023-11-22T00:48:57;7.57;;;6.87;;
19291;SDS011;9779;51.756;7.450;2023-11-22T00:51:23;9.03;;;7.13;;
19291;SDS011;9779;51.756;7.450;2023-11-22T00:53:49;7.63;;;7.13;;
19291;SDS011;9779;51.756;7.450;2023-11-22T00:56:16;10.37;;;6.70;;
19291;SDS011;9779;51.756;7.450;2023-11-22T00:58:41;8.00;;;7.40;;
19291;SDS011;9779;51.756;7.450;2023-11-22T01:01:07;7.63;;;6.97;;
19291;SDS011;9779;51.756;7.450;2023-11-22T01:03:32;7.93;;;7.43;;
19291;SDS011;9779;51.756;7.450;2023-11-22T01:05:58;7.87;;;7.20;;
19291;SDS011;9779;51.756;7.450;2023-11-22T01:08:24;7.87;;;7.27;;
19291;SDS011;9779;51.756;7.450;2023-11-22T01:10:49;7.57;;;7.07;;
19291;SDS011;9779;51.756;7.450;2023-11-22T01:13:15;8.80;;;7.43;;
19291;SDS011;9779;51.756;7.450;2023-11-22T01:15:41;7.87;;;6.70;;
19291;SDS011;9779;51.756;7.450;2023-11-22T01:18:07;7.30;;;6.70;;
19291;SDS011;9779;51.756;7.450;2023-11-22T01:20:32;7.53;;;7.03;;
19291;SDS011;9779;51.756;7.450;2023-11-22T01:22:58;7.30;;;6.80;;
19291;SDS011;9779;51.756;7.450;2023-11-22T01:25:24;12.80;;;7.27;;
19291;SDS011;9779;51.756;7.450;2023-11-22T01:27:49;7.00;;;6.50;;
19291;SDS011;9779;51.756;7.450;2023-11-22T01:30:15;7.47;;;6.70;;
19291;SDS011;9779;51.756;7.450;2023-11-22T01:32:41;6.53;;;6.13;;
19291;SDS011;9779;51.756;7.450;2023-11-22T01:35:06;6.17;;;5.77;;
19291;SDS011;9779;51.756;7.450;2023-11-22T01:37:32;5.80;;;5.40;;
19291;SDS011;9779;51.756;7.450;2023-11-22T01:39:58;6.67;;;6.07;;
19291;SDS011;9779;51.756;7.450;2023-11-22T01:42:24;6.57;;;5.97;;
19291;SDS011;9779;51.756;7.450;2023-11-22T01:44:50;6.07;;;5.67;;
19291;SDS011;9779;51.756;7.450;2023-11-22T01:47:17;7.23;;;6.20;;
19291;SDS011;9779;51.756;7.450;2023-11-22T01:49:44;7.37;;;6.57;;
19291;SDS011;9779;51.756;7.450;2023-11-22T01:52:10;7.03;;;5.30;;
19291;SDS011;9779;51.756;7.450;2023-11-22T01:54:36;6.57;;;5.97;;
19291;SDS011;9779;51.756;7.450;2023-11-22T01:57:02;6.97;;;5.53;;
19291;SDS011;9779;51.756;7.450;2023-11-22T01:59:32;5.43;;;5.03;;
19291;SDS011;9779;51.756;7.450;2023-11-22T02:01:58;5.20;;;4.80;;
19291;SDS011;9779;51.756;7.450;2023-11-22T02:04:24;6.37;;;5.10;;
19291;SDS011;9779;51.756;7.450;2023-11-22T02:06:50;5.27;;;4.93;;
19291;SDS011;9779;51.756;7.450;2023-11-22T02:09:16;6.10;;;5.60;;
19291;SDS011;9779;51.756;7.450;2023-11-22T02:11:42;8.20;;;5.83;;
19291;SDS011;9779;51.756;7.450;2023-11-22T02:14:10;6.17;;;5.57;;
19291;SDS011;9779;51.756;7.450;2023-11-22T02:16:36;5.80;;;5.30;;
19291;SDS011;9779;51.756;7.450;2023-11-22T02:19:04;6.27;;;5.63;;
19291;SDS011;9779;51.756;7.450;2023-11-22T02:21:32;6.83;;;6.20;;
19291;SDS011;9779;51.756;7.450;2023-11-22T02:23:58;9.53;;;6.10;;
19291;SDS011;9779;51.756;7.450;2023-11-22T02:26:24;5.83;;;5.50;;
19291;SDS011;9779;51.756;7.450;2023-11-22T02:28:50;6.20;;;5.80;;
19291;SDS011;9779;51.756;7.450;2023-11-22T02:31:16;6.70;;;6.20;;
19291;SDS011;9779;51.756;7.450;2023-11-22T02:33:42;5.97;;;5.57;;
19291;SDS011;9779;51.756;7.450;2023-11-22T02:36:08;6.10;;;5.70;;
19291;SDS011;9779;51.756;7.450;2023-11-22T02:38:37;5.90;;;4.83;;
19291;SDS011;9779;51.756;7.450;2023-11-22T02:41:03;5.33;;;5.00;;
19291;SDS011;9779;51.756;7.450;2023-11-22T02:43:29;5.83;;;5.50;;
19291;SDS011;9779;51.756;7.450;2023-11-22T02:45:55;6.10;;;5.60;;
19291;SDS011;9779;51.756;7.450;2023-11-22T02:48:20;6.37;;;5.97;;
19291;SDS011;9779;51.756;7.450;2023-11-22T02:50:46;5.57;;;5.27;;
19291;SDS011;9779;51.756;7.450;2023-11-22T02:53:12;6.03;;;5.67;;
19291;SDS011;9779;51.756;7.450;2023-11-22T02:55:37;6.57;;;5.90;;
19291;SDS011;9779;51.756;7.450;2023-11-22T02:58:03;6.07;;;5.47;;
19291;SDS011;9779;51.756;7.450;2023-11-22T03:00:29;6.60;;;5.97;;
19291;SDS011;9779;51.756;7.450;2023-11-22T03:02:55;5.90;;;5.50;;
19291;SDS011;9779;51.756;7.450;2023-11-22T03:05:21;6.33;;;5.93;;
19291;SDS011;9779;51.756;7.450;2023-11-22T03:07:47;5.33;;;4.93;;
19291;SDS011;9779;51.756;7.450;2023-11-22T03:10:13;6.20;;;5.73;;
19291;SDS011;9779;51.756;7.450;2023-11-22T03:12:39;6.17;;;5.77;;
19291;SDS011;9779;51.756;7.450;2023-11-22T03:15:04;8.13;;;5.23;;
19291;SDS011;9779;51.756;7.450;2023-11-22T03:17:31;8.53;;;5.10;;
19291;SDS011;9779;51.756;7.450;2023-11-22T03:19:58;5.67;;;5.20;;
19291;SDS011;9779;51.756;7.450;2023-11-22T03:22:27;6.37;;;5.87;;
19291;SDS011;9779;51.756;7.450;2023-11-22T03:24:55;5.73;;;5.33;;
19291;SDS011;9779;51.756;7.450;2023-11-22T03:27:21;6.73;;;5.27;;
19291;SDS011;9779;51.756;7.450;2023-11-22T03:29:48;6.40;;;5.90;;
19291;SDS011;9779;51.756;7.450;2023-11-22T03:32:13;7.70;;;5.40;;
19291;SDS011;9779;51.756;7.450;2023-11-22T03:34:39;6.67;;;6.17;;
19291;SDS011;9779;51.756;7.450;2023-11-22T03:37:04;6.50;;;6.00;;
19291;SDS011;9779;51.756;7.450;2023-11-22T03:39:30;8.30;;;4.97;;
19291;SDS011;9779;51.756;7.450;2023-11-22T03:41:56;5.73;;;5.33;;
19291;SDS011;9779;51.756;7.450;2023-11-22T03:44:22;5.40;;;5.10;;
19291;SDS011;9779;51.756;7.450;2023-11-22T03:46:48;6.50;;;6.10;;
19291;SDS011;9779;51.756;7.450;2023-11-22T03:49:13;6.27;;;5.23;;
19291;SDS011;9779;51.756;7.450;2023-11-22T03:51:40;5.90;;;5.40;;
19291;SDS011;9779;51.756;7.450;2023-11-22T03:54:07;6.03;;;5.63;;
19291;SDS011;9779;51.756;7.450;2023-11-22T03:56:35;5.80;;;5.30;;
19291;SDS011;9779;51.756;7.450;2023-11-22T03:59:00;6.00;;;5.50;;
19291;SDS011;9779;51.756;7.450;2023-11-22T04:01:26;5.67;;;5.37;;
19291;SDS011;9779;51.756;7.450;2023-11-22T04:03:51;5.23;;;4.83;;
19291;SDS011;9779;51.756;7.450;2023-11-22T04:06:18;5.80;;;5.40;;
19291;SDS011;9779;51.756;7.450;2023-11-22T04:08:44;5.97;;;5.50;;
19291;SDS011;9779;51.756;7.450;2023-11-22T04:11:11;5.83;;;5.53;;
19291;SDS011;9779;51.756;7.450;2023-11-22T04:13:40;5.73;;;5.33;;
19291;SDS011;9779;51.756;7.450;2023-11-22T04:16:09;6.20;;;5.70;;
19291;SDS011;9779;51.756;7.450;2023-11-22T04:18:40;5.97;;;5.47;;
19291;SDS011;9779;51.756;7.450;2023-11-22T04:21:06;5.67;;;4.83;;
19291;SDS011;9779;51.756;7.450;2023-11-22T04:23:32;5.97;;;5.43;;
19291;SDS011;9779;51.756;7.450;2023-11-22T04:25:58;5.53;;;5.03;;
19291;SDS011;9779;51.756;7.450;2023-11-22T04:28:25;5.27;;;4.87;;
19291;SDS011;9779;51.756;7.450;2023-11-22T04:30:51;6.00;;;5.60;;
19291;SDS011;9779;51.756;7.450;2023-11-22T04:33:18;5.77;;;5.27;;
19291;SDS011;9779;51.756;7.450;2023-11-22T04:35:44;10.37;;;5.77;;
19291;SDS011;9779;51.756;7.450;2023-11-22T04:38:09;5.47;;;5.17;;
19291;SDS011;9779;51.756;7.450;2023-11-22T04:40:35;11.87;;;5.40;;
19291;SDS011;9779;51.756;7.450;2023-11-22T04:43:01;5.60;;;5.30;;
19291;SDS011;9779;51.756;7.450;2023-11-22T04:45:27;5.70;;;5.30;;
19291;SDS011;9779;51.756;7.450;2023-11-22T04:47:53;5.43;;;5.03;;
19291;SDS011;9779;51.756;7.450;2023-11-22T04:50:18;5.40;;;5.10;;
19291;SDS011;9779;51.756;7.450;2023-11-22T04:52:44;5.90;;;5.40;;
19291;SDS011;9779;51.756;7.450;2023-11-22T04:55:09;6.00;;;5.60;;
19291;SDS011;9779;51.756;7.450;2023-11-22T04:57:35;6.23;;;5.77;;
19291;SDS011;9779;51.756;7.450;2023-11-22T05:00:01;5.30;;;4.90;;
19291;SDS011;9779;51.756;7.450;2023-11-22T05:02:29;5.97;;;5.47;;
19291;SDS011;9779;51.756;7.450;2023-11-22T05:04:55;6.03;;;5.63;;
19291;SDS011;9779;51.756;7.450;2023-11-22T05:07:22;5.23;;;4.93;;
19291;SDS011;9779;51.756;7.450;2023-11-22T05:09:47;5.13;;;4.83;;
19291;SDS011;9779;51.756;7.450;2023-11-22T05:12:13;7.40;;;5.30;;
19291;SDS011;9779;51.756;7.450;2023-11-22T05:14:39;6.53;;;6.10;;
19291;SDS011;9779;51.756;7.450;2023-11-22T05:17:05;12.53;;;11.20;;
19291;SDS011;9779;51.756;7.450;2023-11-22T05:19:31;11.20;;;10.00;;
19291;SDS011;9779;51.756;7.450;2023-11-22T05:21:57;9.07;;;8.23;;
19291;SDS011;9779;51.756;7.450;2023-11-22T05:24:22;11.57;;;8.67;;
19291;SDS011;9779;51.756;7.450;2023-11-22T05:26:48;9.90;;;8.57;;
19291;SDS011;9779;51.756;7.450;2023-11-22T05:29:14;8.40;;;7.60;;
19291;SDS011;9779;51.756;7.450;2023-11-22T05:31:40;7.60;;;7.10;;
19291;SDS011;9779;51.756;7.450;2023-11-22T05:34:05;6.30;;;5.90;;
19291;SDS011;9779;51.756;7.450;2023-11-22T05:36:31;6.90;;;5.73;;
19291;SDS011;9779;51.756;7.450;2023-11-22T05:38:57;5.57;;;5.27;;
19291;SDS011;9779;51.756;7.450;2023-11-22T05:41:24;5.23;;;4.93;;
19291;SDS011;9779;51.756;7.450;2023-11-22T05:43:51;5.60;;;5.30;;
19291;SDS011;9779;51.756;7.450;2023-11-22T05:46:17;5.63;;;5.23;;
19291;SDS011;9779;51.756;7.450;2023-11-22T05:48:47;5.87;;;5.00;;
19291;SDS011;9779;51.756;7.450;2023-11-22T05:51:14;5.90;;;5.33;;
19291;SDS011;9779;51.756;7.450;2023-11-22T05:53:40;6.10;;;5.60;;
19291;SDS011;9779;51.756;7.450;2023-11-22T05:56:06;8.93;;;5.73;;
19291;SDS011;9779;51.756;7.450;2023-11-22T05:58:33;6.10;;;5.43;;
19291;SDS011;9779;51.756;7.450;2023-11-22T06:01:03;5.57;;;5.17;;
19291;SDS011;9779;51.756;7.450;2023-11-22T06:03:31;5.50;;;5.10;;
19291;SDS011;9779;51.756;7.450;2023-11-22T06:05:58;5.73;;;5.30;;
19291;SDS011;9779;51.756;7.450;2023-11-22T06:08:24;6.23;;;5.73;;
19291;SDS011;9779;51.756;7.450;2023-11-22T06:10:50;5.87;;;5.37;;
19291;SDS011;9779;51.756;7.450;2023-11-22T06:13:16;5.53;;;5.13;;
19291;SDS011;9779;51.756;7.450;2023-11-22T06:15:42;5.33;;;5.03;;
19291;SDS011;9779;51.756;7.450;2023-11-22T06:18:08;5.33;;;5.03;;
19291;SDS011;9779;51.756;7.450;2023-11-22T06:20:34;5.53;;;5.10;;
19291;SDS011;9779;51.756;7.450;2023-11-22T06:23:00;4.90;;;4.60;;
19291;SDS011;9779;51.756;7.450;2023-11-22T06:25:25;7.00;;;6.50;;
19291;SDS011;9779;51.756;7.450;2023-11-22T06:27:52;7.93;;;7.23;;
19291;SDS011;9779;51.756;7.450;2023-11-22T06:30:17;8.60;;;7.90;;
19291;SDS011;9779;51.756;7.450;2023-11-22T06:32:43;9.67;;;8.57;;
19291;SDS011;9779;51.756;7.450;2023-11-22T06:35:09;8.90;;;6.60;;
19291;SDS011;9779;51.756;7.450;2023-11-22T06:37:39;7.33;;;6.73;;
19291;SDS011;9779;51.756;7.450;2023-11-22T06:40:05;9.63;;;7.40;;
19291;SDS011;9779;51.756;7.450;2023-11-22T06:42:32;7.00;;;6.57;;
19291;SDS011;9779;51.756;7.450;2023-11-22T06:44:58;7.10;;;6.60;;
19291;SDS011;9779;51.756;7.450;2023-11-22T06:47:25;6.73;;;6.27;;
19291;SDS011;9779;51.756;7.450;2023-11-22T06:49:52;7.10;;;6.60;;
19291;SDS011;9779;51.756;7.450;2023-11-22T06:52:18;8.43;;;6.60;;
19291;SDS011;9779;51.756;7.450;2023-11-22T06:54:44;7.57;;;6.63;;
19291;SDS011;9779;51.756;7.450;2023-11-22T06:57:09;7.47;;;6.97;;
19291;SDS011;9779;51.756;7.450;2023-11-22T06:59:35;8.10;;;7.50;;
19291;SDS011;9779;51.756;7.450;2023-11-22T07:02:01;7.13;;;6.53;;
19291;SDS011;9779;51.756;7.450;2023-11-22T07:04:27;7.13;;;6.63;;
19291;SDS011;9779;51.756;7.450;2023-11-22T07:06:52;11.03;;;7.77;;
19291;SDS011;9779;51.756;7.450;2023-11-22T07:09:18;9.57;;;8.53;;
19291;SDS011;9779;51.756;7.450;2023-11-22T07:11:44;9.37;;;8.60;;
19291;SDS011;9779;51.756;7.450;2023-11-22T07:14:09;9.47;;;8.67;;
19291;SDS011;9779;51.756;7.450;2023-11-22T07:16:35;8.70;;;7.90;;
19291;SDS011;9779;51.756;7.450;2023-11-22T07:19:02;7.77;;;7.00;;
19291;SDS011;9779;51.756;7.450;2023-11-22T07:21:28;9.40;;;7.13;;
19291;SDS011;9779;51.756;7.450;2023-11-22T07:23:57;7.57;;;6.87;;
19291;SDS011;9779;51.756;7.450;2023-11-22T07:26:26;7.20;;;6.60;;
19291;SDS011;9779;51.756;7.450;2023-11-22T07:28:52;6.73;;;6.30;;
19291;SDS011;9779;51.756;7.450;2023-11-22T07:31:18;6.80;;;6.30;;
19291;SDS011;9779;51.756;7.450;2023-11-22T07:33:44;7.60;;;7.00;;
19291;SDS011;9779;51.756;7.450;2023-11-22T07:36:11;11.33;;;8.03;;
19291;SDS011;9779;51.756;7.450;2023-11-22T07:38:40;8.07;;;7.50;;
19291;SDS011;9779;51.756;7.450;2023-11-22T07:41:06;8.00;;;7.50;;
19291;SDS011;9779;51.756;7.450;2023-11-22T07:43:35;8.63;;;7.87;;
19291;SDS011;9779;51.756;7.450;2023-11-22T07:46:05;8.60;;;7.77;;
19291;SDS011;9779;51.756;7.450;2023-11-22T07:48:37;8.83;;;8.03;;
19291;SDS011;9779;51.756;7.450;2023-11-22T07:51:03;8.03;;;7.43;;
19291;SDS011;9779;51.756;7.450;2023-11-22T07:53:30;7.97;;;7.47;;
19291;SDS011;9779;51.756;7.450;2023-11-22T07:55:59;7.73;;;7.07;;
19291;SDS011;9779;51.756;7.450;2023-11-22T07:58:29;8.57;;;7.87;;
19291;SDS011;9779;51.756;7.450;2023-11-22T08:00:56;7.70;;;7.07;;
19291;SDS011;9779;51.756;7.450;2023-11-22T08:03:22;8.43;;;7.83;;
19291;SDS011;9779;51.756;7.450;2023-11-22T08:05:50;9.40;;;7.17;;
19291;SDS011;9779;51.756;7.450;2023-11-22T08:08:19;7.87;;;7.27;;
19291;SDS011;9779;51.756;7.450;2023-11-22T08:10:45;8.53;;;7.23;;
19291;SDS011;9779;51.756;7.450;2023-11-22T08:13:12;7.90;;;7.30;;
19291;SDS011;9779;51.756;7.450;2023-11-22T08:15:38;8.10;;;7.60;;
19291;SDS011;9779;51.756;7.450;2023-11-22T08:18:04;10.33;;;8.33;;
19291;SDS011;9779;51.756;7.450;2023-11-22T08:20:30;8.77;;;7.93;;
19291;SDS011;9779;51.756;7.450;2023-11-22T08:22:56;8.07;;;7.37;;
19291;SDS011;9779;51.756;7.450;2023-11-22T08:25:22;7.87;;;7.27;;
19291;SDS011;9779;51.756;7.450;2023-11-22T08:27:48;9.17;;;8.07;;
19291;SDS011;9779;51.756;7.450;2023-11-22T08:30:14;7.67;;;7.07;;
19291;SDS011;9779;51.756;7.450;2023-11-22T08:32:43;9.03;;;8.13;;
19291;SDS011;9779;51.756;7.450;2023-11-22T08:35:18;7.50;;;6.90;;
19291;SDS011;9779;51.756;7.450;2023-11-22T08:37:44;7.93;;;6.63;;
19291;SDS011;9779;51.756;7.450;2023-11-22T08:40:12;6.53;;;5.97;;
19291;SDS011;9779;51.756;7.450;2023-11-22T08:42:43;7.17;;;6.67;;
19291;SDS011;9779;51.756;7.450;2023-11-22T08:45:09;11.07;;;6.93;;
19291;SDS011;9779;51.756;7.450;2023-11-22T08:47:36;9.83;;;6.70;;
19291;SDS011;9779;51.756;7.450;2023-11-22T08:50:02;7.60;;;7.00;;
19291;SDS011;9779;51.756;7.450;2023-11-22T08:52:28;7.30;;;6.17;;
19291;SDS011;9779;51.756;7.450;2023-11-22T08:54:55;6.60;;;5.97;;
19291;SDS011;9779;51.756;7.450;2023-11-22T08:57:21;8.33;;;6.93;;
19291;SDS011;9779;51.756;7.450;2023-11-22T08:59:47;7.67;;;6.23;;
19291;SDS011;9779;51.756;7.450;2023-11-22T09:02:14;6.60;;;6.10;;
19291;SDS011;9779;51.756;7.450;2023-11-22T09:04:40;7.30;;;6.63;;
19291;SDS011;9779;51.756;7.450;2023-11-22T09:07:07;8.00;;;5.73;;
19291;SDS011;9779;51.756;7.450;2023-11-22T09:09:35;6.80;;;6.20;;
19291;SDS011;9779;51.756;7.450;2023-11-22T09:12:01;8.57;;;5.97;;
19291;SDS011;9779;51.756;7.450;2023-11-22T09:14:26;10.23;;;6.73;;
19291;SDS011;9779;51.756;7.450;2023-11-22T09:16:53;7.10;;;6.33;;
19291;SDS011;9779;51.756;7.450;2023-11-22T09:19:22;6.57;;;6.07;;
19291;SDS011;9779;51.756;7.450;2023-11-22T09:21:49;7.73;;;6.93;;
19291;SDS011;9779;51.756;7.450;2023-11-22T09:24:15;7.33;;;6.70;;
19291;SDS011;9779;51.756;7.450;2023-11-22T09:26:41;6.63;;;6.13;;
19291;SDS011;9779;51.756;7.450;2023-11-22T09:29:10;6.20;;;5.70;;
19291;SDS011;9779;51.756;7.450;2023-11-22T09:31:39;6.70;;;6.17;;
19291;SDS011;9779;51.756;7.450;2023-11-22T09:34:07;9.47;;;6.50;;
19291;SDS011;9779;51.756;7.450;2023-11-22T09:36:33;6.47;;;5.87;;
19291;SDS011;9779;51.756;7.450;2023-11-22T09:38:59;7.07;;;6.40;;
19291;SDS011;9779;51.756;7.450;2023-11-22T09:41:24;7.20;;;6.70;;
19291;SDS011;9779;51.756;7.450;2023-11-22T09:43:52;6.87;;;5.97;;
19291;SDS011;9779;51.756;7.450;2023-11-22T09:46:23;5.67;;;5.27;;
19291;SDS011;9779;51.756;7.450;2023-11-22T09:48:50;7.00;;;6.30;;
19291;SDS011;9779;51.756;7.450;2023-11-22T09:53:53;6.13;;;5.50;;
19291;SDS011;9779;51.756;7.450;2023-11-22T09:56:22;5.50;;;5.20;;
19291;SDS011;9779;51.756;7.450;2023-11-22T09:58:51;6.63;;;5.93;;
19291;SDS011;9779;51.756;7.450;2023-11-22T10:01:22;8.00;;;5.67;;
19291;SDS011;9779;51.756;7.450;2023-11-22T10:03:48;6.17;;;5.53;;
19291;SDS011;9779;51.756;7.450;2023-11-22T10:06:14;5.43;;;5.10;;
19291;SDS011;9779;51.756;7.450;2023-11-22T10:08:41;6.27;;;5.77;;
19291;SDS011;9779;51.756;7.450;2023-11-22T10:11:06;6.40;;;5.90;;
19291;SDS011;9779;51.756;7.450;2023-11-22T10:13:32;6.37;;;5.97;;
19291;SDS011;9779;51.756;7.450;2023-11-22T10:16:08;5.93;;;5.37;;
19291;SDS011;9779;51.756;7.450;2023-11-22T10:18:43;5.47;;;5.07;;
19291;SDS011;9779;51.756;7.450;2023-11-22T10:21:24;5.73;;;5.27;;
19291;SDS011;9779;51.756;7.450;2023-11-22T10:24:01;6.07;;;5.37;;
19291;SDS011;9779;51.756;7.450;2023-11-22T10:26:28;6.03;;;5.63;;
19291;SDS011;9779;51.756;7.450;2023-11-22T10:28:54;5.73;;;5.23;;
19291;SDS011;9779;51.756;7.450;2023-11-22T10:31:21;8.93;;;5.77;;
19291;SDS011;9779;51.756;7.450;2023-11-22T10:33:48;8.93;;;5.60;;
19291;SDS011;9779;51.756;7.450;2023-11-22T10:36:15;5.87;;;5.47;;
19291;SDS011;9779;51.756;7.450;2023-11-22T10:38:41;5.60;;;5.10;;
19291;SDS011;9779;51.756;7.450;2023-11-22T10:41:13;6.13;;;5.30;;
19291;SDS011;9779;51.756;7.450;2023-11-22T10:43:39;5.80;;;5.20;;
19291;SDS011;9779;51.756;7.450;2023-11-22T10:46:07;4.90;;;4.50;;
19291;SDS011;9779;51.756;7.450;2023-11-22T10:48:36;6.43;;;4.80;;
19291;SDS011;9779;51.756;7.450;2023-11-22T10:51:02;4.77;;;4.37;;
19291;SDS011;9779;51.756;7.450;2023-11-22T10:53:33;5.03;;;4.63;;
19291;SDS011;9779;51.756;7.450;2023-11-22T10:56:03;5.20;;;4.80;;
19291;SDS011;9779;51.756;7.450;2023-11-22T10:58:36;6.03;;;4.93;;
19291;SDS011;9779;51.756;7.450;2023-11-22T11:01:17;4.63;;;4.23;;
19291;SDS011;9779;51.756;7.450;2023-11-22T11:06:35;4.97;;;4.67;;
19291;SDS011;9779;51.756;7.450;2023-11-22T11:09:02;5.73;;;4.63;;
19291;SDS011;9779;51.756;7.450;2023-11-22T11:11:31;4.70;;;4.10;;
19291;SDS011;9779;51.756;7.450;2023-11-22T11:13:57;4.67;;;4.37;;
19291;SDS011;9779;51.756;7.450;2023-11-22T11:16:24;4.43;;;4.13;;
19291;SDS011;9779;51.756;7.450;2023-11-22T11:18:51;5.20;;;4.77;;
19291;SDS011;9779;51.756;7.450;2023-11-22T11:21:18;5.00;;;4.70;;
19291;SDS011;9779;51.756;7.450;2023-11-22T11:23:44;5.20;;;4.70;;
19291;SDS011;9779;51.756;7.450;2023-11-22T11:26:17;4.90;;;4.50;;
19291;SDS011;9779;51.756;7.450;2023-11-22T11:28:47;4.40;;;4.10;;
19291;SDS011;9779;51.756;7.450;2023-11-22T11:31:14;4.37;;;4.13;;
19291;SDS011;9779;51.756;7.450;2023-11-22T11:36:22;5.10;;;4.60;;
19291;SDS011;9779;51.756;7.450;2023-11-22T11:38:49;4.57;;;4.27;;
19291;SDS011;9779;51.756;7.450;2023-11-22T11:41:16;4.73;;;4.43;;
19291;SDS011;9779;51.756;7.450;2023-11-22T11:43:45;4.97;;;4.50;;
19291;SDS011;9779;51.756;7.450;2023-11-22T11:46:13;4.17;;;3.83;;
19291;SDS011;9779;51.756;7.450;2023-11-22T11:48:50;7.23;;;4.07;;
19291;SDS011;9779;51.756;7.450;2023-11-22T11:51:23;4.00;;;3.70;;
19291;SDS011;9779;51.756;7.450;2023-11-22T11:53:50;4.80;;;4.30;;
19291;SDS011;9779;51.756;7.450;2023-11-22T11:56:16;4.10;;;3.80;;
19291;SDS011;9779;51.756;7.450;2023-11-22T11:58:44;8.10;;;3.93;;
19291;SDS011;9779;51.756;7.450;2023-11-22T12:01:12;5.00;;;4.03;;
19291;SDS011;9779;51.756;7.450;2023-11-22T12:03:38;4.33;;;4.03;;
19291;SDS011;9779;51.756;7.450;2023-11-22T12:06:05;14.20;;;5.10;;
19291;SDS011;9779;51.756;7.450;2023-11-22T12:08:31;7.20;;;5.50;;
19291;SDS011;9779;51.756;7.450;2023-11-22T12:11:04;6.37;;;5.07;;
19291;SDS011;9779;51.756;7.450;2023-11-22T12:13:33;8.87;;;5.57;;
19291;SDS011;9779;51.756;7.450;2023-11-22T12:16:00;10.90;;;4.40;;
19291;SDS011;9779;51.756;7.450;2023-11-22T12:18:38;4.77;;;4.37;;
19291;SDS011;9779;51.756;7.450;2023-11-22T12:21:12;4.67;;;4.37;;
19291;SDS011;9779;51.756;7.450;2023-11-22T12:23:38;4.80;;;4.50;;
19291;SDS011;9779;51.756;7.450;2023-11-22T12:26:09;6.80;;;5.33;;
19291;SDS011;9779;51.756;7.450;2023-11-22T12:28:41;5.90;;;5.40;;
19291;SDS011;9779;51.756;7.450;2023-11-22T12:31:12;5.47;;;5.07;;
19291;SDS011;9779;51.756;7.450;2023-11-22T12:33:39;6.27;;;5.30;;
19291;SDS011;9779;51.756;7.450;2023-11-22T12:36:06;5.97;;;5.37;;
19291;SDS011;9779;51.756;7.450;2023-11-22T12:38:34;6.00;;;4.37;;
19291;SDS011;9779;51.756;7.450;2023-11-22T12:41:03;7.53;;;5.00;;
19291;SDS011;9779;51.756;7.450;2023-11-22T12:43:31;5.20;;;4.90;;
19291;SDS011;9779;51.756;7.450;2023-11-22T12:48:26;3.17;;;2.97;;
19291;SDS011;9779;51.756;7.450;2023-11-22T12:50:54;3.67;;;3.47;;
19291;SDS011;9779;51.756;7.450;2023-11-22T12:53:21;3.63;;;3.33;;
19291;SDS011;9779;51.756;7.450;2023-11-22T12:55:51;6.30;;;3.73;;
19291;SDS011;9779;51.756;7.450;2023-11-22T12:58:18;4.50;;;3.57;;
19291;SDS011;9779;51.756;7.450;2023-11-22T13:00:45;4.07;;;3.73;;
19291;SDS011;9779;51.756;7.450;2023-11-22T13:03:11;3.73;;;3.53;;
19291;SDS011;9779;51.756;7.450;2023-11-22T13:05:38;4.53;;;4.20;;
19291;SDS011;9779;51.756;7.450;2023-11-22T13:08:04;5.10;;;4.07;;
19291;SDS011;9779;51.756;7.450;2023-11-22T13:10:30;3.73;;;3.43;;
19291;SDS011;9779;51.756;7.450;2023-11-22T13:12:56;3.60;;;3.40;;
19291;SDS011;9779;51.756;7.450;2023-11-22T13:15:22;3.83;;;3.40;;
19291;SDS011;9779;51.756;7.450;2023-11-22T13:17:50;4.13;;;3.83;;
19291;SDS011;9779;51.756;7.450;2023-11-22T13:20:20;4.50;;;4.20;;
19291;SDS011;9779;51.756;7.450;2023-11-22T13:22:50;5.07;;;4.67;;
19291;SDS011;9779;51.756;7.450;2023-11-22T13:25:20;4.30;;;4.03;;
19291;SDS011;9779;51.756;7.450;2023-11-22T13:27:46;5.10;;;4.73;;
19291;SDS011;9779;51.756;7.450;2023-11-22T13:30:16;5.93;;;4.00;;
19291;SDS011;9779;51.756;7.450;2023-11-22T13:32:48;4.90;;;3.97;;
19291;SDS011;9779;51.756;7.450;2023-11-22T13:35:14;6.87;;;3.80;;
19291;SDS011;9779;51.756;7.450;2023-11-22T13:37:44;6.97;;;4.03;;
19291;SDS011;9779;51.756;7.450;2023-11-22T13:40:10;6.63;;;4.20;;
19291;SDS011;9779;51.756;7.450;2023-11-22T13:42:39;9.80;;;4.10;;
19291;SDS011;9779;51.756;7.450;2023-11-22T13:45:12;3.77;;;3.47;;
19291;SDS011;9779;51.756;7.450;2023-11-22T13:50:10;5.57;;;3.47;;
19291;SDS011;9779;51.756;7.450;2023-11-22T13:52:39;3.53;;;3.23;;
19291;SDS011;9779;51.756;7.450;2023-11-22T13:55:05;4.37;;;4.07;;
19291;SDS011;9779;51.756;7.450;2023-11-22T13:57:35;4.00;;;3.70;;
19291;SDS011;9779;51.756;7.450;2023-11-22T14:00:02;3.77;;;3.47;;
19291;SDS011;9779;51.756;7.450;2023-11-22T14:02:34;6.20;;;3.63;;
19291;SDS011;9779;51.756;7.450;2023-11-22T14:05:00;4.33;;;3.90;;
19291;SDS011;9779;51.756;7.450;2023-11-22T14:07:26;5.57;;;3.90;;
19291;SDS011;9779;51.756;7.450;2023-11-22T14:09:52;4.30;;;4.00;;
19291;SDS011;9779;51.756;7.450;2023-11-22T14:12:18;3.97;;;3.50;;
19291;SDS011;9779;51.756;7.450;2023-11-22T14:14:44;4.13;;;3.60;;
19291;SDS011;9779;51.756;7.450;2023-11-22T14:17:10;4.10;;;3.70;;
19291;SDS011;9779;51.756;7.450;2023-11-22T14:19:36;5.07;;;4.77;;
19291;SDS011;9779;51.756;7.450;2023-11-22T14:22:01;4.93;;;4.40;;
19291;SDS011;9779;51.756;7.450;2023-11-22T14:24:27;5.70;;;4.43;;
19291;SDS011;9779;51.756;7.450;2023-11-22T14:26:55;5.00;;;3.80;;
19291;SDS011;9779;51.756;7.450;2023-11-22T14:29:22;4.07;;;3.77;;
19291;SDS011;9779;51.756;7.450;2023-11-22T14:31:48;3.13;;;2.93;;
19291;SDS011;9779;51.756;7.450;2023-11-22T14:34:14;4.57;;;3.40;;
19291;SDS011;9779;51.756;7.450;2023-11-22T14:36:40;3.43;;;3.23;;
19291;SDS011;9779;51.756;7.450;2023-11-22T14:39:05;3.70;;;3.33;;
19291;SDS011;9779;51.756;7.450;2023-11-22T14:41:32;3.43;;;3.23;;
19291;SDS011;9779;51.756;7.450;2023-11-22T14:43:58;3.83;;;3.53;;
19291;SDS011;9779;51.756;7.450;2023-11-22T14:46:24;3.07;;;2.87;;
19291;SDS011;9779;51.756;7.450;2023-11-22T14:48:49;6.17;;;3.50;;
19291;SDS011;9779;51.756;7.450;2023-11-22T14:51:15;5.50;;;3.07;;
19291;SDS011;9779;51.756;7.450;2023-11-22T14:53:40;7.20;;;3.80;;
19291;SDS011;9779;51.756;7.450;2023-11-22T14:56:09;7.87;;;3.30;;
19291;SDS011;9779;51.756;7.450;2023-11-22T14:58:35;13.10;;;5.43;;
19291;SDS011;9779;51.756;7.450;2023-11-22T15:01:00;3.23;;;2.97;;
19291;SDS011;9779;51.756;7.450;2023-11-22T15:03:26;3.20;;;3.00;;
19291;SDS011;9779;51.756;7.450;2023-11-22T15:05:53;5.43;;;3.47;;
19291;SDS011;9779;51.756;7.450;2023-11-22T15:08:19;3.17;;;3.00;;
19291;SDS011;9779;51.756;7.450;2023-11-22T15:10:45;3.80;;;3.50;;